Aflex, Kentucky
Current Conditions -  °F | °C
As of 8:55 AM on Monday 20 Oct 2014 (Local Time) from KPBX Reporting Station
Clear Clear  
Wind Chill: 39°   Ceiling: Unl
Heat Index: 43°   Visibility: 10mi
Dew Point: 39°   Wind: 6mph
Humidity: 87%   Direction: 170°S
Pressure: 30.09"   Gusts: NA
Location:  37.632°N, 82.2603°W
Report Text: KPBX 201255Z AUTO 17005KT 10SM CLR 06/04 A3009 RMK AO2 T00610041
Loading
Personal Weather Stations






























Interactive Weather Map New forecast layout! Learn more

10-Day Weather Forecast

Advertisements
Track Severe Weather on mobile